createdAt,value
2018-01-19T00:01:58.559Z,6.87
2018-01-19T00:04:26.975Z,5.90
2018-01-19T00:06:55.540Z,5.23
2018-01-19T00:09:23.913Z,5.67
2018-01-19T00:11:52.361Z,5.53
2018-01-19T00:14:20.764Z,5.70
2018-01-19T00:16:49.328Z,5.97
2018-01-19T00:19:17.965Z,5.30
2018-01-19T00:21:47.137Z,5.23
2018-01-19T00:24:15.553Z,5.80
2018-01-19T00:26:43.932Z,4.30
2018-01-19T00:29:12.879Z,4.40
2018-01-19T00:31:41.463Z,4.00
2018-01-19T00:34:10.002Z,4.47
2018-01-19T00:36:38.350Z,4.67
2018-01-19T00:39:07.642Z,4.40
2018-01-19T00:41:36.939Z,4.67
2018-01-19T00:44:05.571Z,5.23
2018-01-19T00:46:34.245Z,5.67
2018-01-19T00:49:02.723Z,6.03
2018-01-19T00:51:30.894Z,6.00
2018-01-19T00:54:00.019Z,6.67
2018-01-19T00:56:28.372Z,6.10
2018-01-19T00:58:56.744Z,6.37
2018-01-19T01:01:25.870Z,7.40
2018-01-19T01:03:54.374Z,6.73
2018-01-19T01:06:22.874Z,6.63
2018-01-19T01:08:52.742Z,7.17
2018-01-19T01:11:21.114Z,7.57
2018-01-19T01:13:49.631Z,7.30
2018-01-19T01:16:17.988Z,7.60
2018-01-19T01:18:46.568Z,7.80
2018-01-19T01:21:14.979Z,8.13
2018-01-19T01:23:43.590Z,8.77
2018-01-19T01:26:12.904Z,8.60
2018-01-19T01:28:41.264Z,8.73
2018-01-19T01:31:10.549Z,9.93
2018-01-19T01:33:38.911Z,9.10
2018-01-19T01:36:08.067Z,9.50
2018-01-19T01:38:36.420Z,10.23
2018-01-19T01:41:05.872Z,10.37
2018-01-19T01:43:34.520Z,10.23
2018-01-19T01:46:02.864Z,11.40
2018-01-19T01:48:31.620Z,10.10
2018-01-19T01:50:59.839Z,10.77
2018-01-19T01:53:29.022Z,9.73
2018-01-19T01:55:57.507Z,11.10
2018-01-19T01:58:25.974Z,9.60
2018-01-19T02:00:54.370Z,8.93
2018-01-19T02:03:23.660Z,8.10
2018-01-19T02:05:52.095Z,6.60
2018-01-19T02:08:20.628Z,5.80
2018-01-19T02:10:49.755Z,6.43
2018-01-19T02:13:18.379Z,6.50
2018-01-19T02:15:46.878Z,6.20
2018-01-19T02:18:16.163Z,7.67
2018-01-19T02:20:44.427Z,7.27
2018-01-19T02:23:12.765Z,7.20
2018-01-19T02:25:41.259Z,8.30
2018-01-19T02:28:09.780Z,8.53
2018-01-19T02:30:38.186Z,9.70
2018-01-19T02:33:06.569Z,8.70
2018-01-19T02:35:35.975Z,10.00
2018-01-19T02:38:04.381Z,10.10
2018-01-19T02:40:32.784Z,10.60
2018-01-19T02:43:01.763Z,9.90
2018-01-19T02:45:30.103Z,11.73
2018-01-19T02:47:58.529Z,11.77
2018-01-19T02:50:27.013Z,11.13
2018-01-19T02:52:55.710Z,12.00
2018-01-19T02:55:24.995Z,12.40
2018-01-19T02:57:53.362Z,12.80
2018-01-19T03:00:21.884Z,13.07
2018-01-19T03:02:50.277Z,13.47
2018-01-19T03:05:19.702Z,14.07
2018-01-19T03:07:48.261Z,13.53
2018-01-19T03:10:17.669Z,11.90
2018-01-19T03:12:46.795Z,12.70
2018-01-19T03:15:15.196Z,10.93
2018-01-19T03:17:44.190Z,11.10
2018-01-19T03:20:12.723Z,13.80
2018-01-19T03:22:41.707Z,13.40
2018-01-19T03:25:10.839Z,13.77
2018-01-19T03:27:39.387Z,14.90
2018-01-19T03:30:07.759Z,17.27
2018-01-19T03:32:36.878Z,18.40
2018-01-19T03:35:05.264Z,18.07
2018-01-19T03:37:33.638Z,19.60
2018-01-19T03:40:02.067Z,18.40
2018-01-19T03:42:30.422Z,18.13
2018-01-19T03:44:58.795Z,17.33
2018-01-19T03:47:27.345Z,15.87
2018-01-19T03:49:55.738Z,16.60
2018-01-19T03:52:24.121Z,15.40
2018-01-19T03:54:52.641Z,13.97
2018-01-19T03:57:22.572Z,12.33
2018-01-19T03:59:51.730Z,10.50
2018-01-19T04:02:20.138Z,9.53
2018-01-19T04:04:48.491Z,9.20
2018-01-19T04:07:17.092Z,9.27
2018-01-19T04:09:45.486Z,9.67
2018-01-19T04:12:14.902Z,8.67
2018-01-19T04:14:43.250Z,8.23
2018-01-19T04:17:11.648Z,9.40
2018-01-19T04:19:40.808Z,9.70
2018-01-19T04:22:09.177Z,9.23
2018-01-19T04:24:37.571Z,10.63
2018-01-19T04:27:05.951Z,10.17
2018-01-19T04:29:34.569Z,12.07
2018-01-19T04:32:03.842Z,11.13
2018-01-19T04:34:32.032Z,11.20
2018-01-19T04:37:00.997Z,11.93
2018-01-19T04:39:29.340Z,11.57
2018-01-19T04:42:00.988Z,10.17
2018-01-19T04:44:29.678Z,10.30
2018-01-19T04:46:58.049Z,9.30
2018-01-19T04:49:26.547Z,10.13
2018-01-19T04:51:54.911Z,8.93
2018-01-19T04:54:23.333Z,8.37
2018-01-19T04:56:51.772Z,9.57
2018-01-19T04:59:20.295Z,8.30
2018-01-19T05:01:48.642Z,9.40
2018-01-19T05:04:17.010Z,9.87
2018-01-19T05:06:45.452Z,10.20
2018-01-19T05:09:14.591Z,11.13
2018-01-19T05:11:43.114Z,12.10
2018-01-19T05:14:12.267Z,14.47
2018-01-19T05:16:40.634Z,13.40
2018-01-19T05:19:08.972Z,15.13
2018-01-19T05:21:38.275Z,14.13
2018-01-19T05:24:07.408Z,16.60
2018-01-19T05:26:36.061Z,15.90
2018-01-19T05:29:05.563Z,15.93
2018-01-19T05:31:34.699Z,17.23
2018-01-19T05:34:03.068Z,17.63
2018-01-19T05:36:31.419Z,17.40
2018-01-19T05:39:00.703Z,19.87
2018-01-19T05:41:30.046Z,17.90
2018-01-19T05:43:58.524Z,19.77
2018-01-19T05:46:26.904Z,19.83
2018-01-19T05:48:55.544Z,17.73
2018-01-19T05:51:23.886Z,20.30
2018-01-19T05:53:52.259Z,19.30
2018-01-19T05:56:21.111Z,20.23
2018-01-19T05:58:50.284Z,19.07
2018-01-19T06:01:19.501Z,19.87
2018-01-19T06:03:47.866Z,20.40
2018-01-19T06:06:16.981Z,23.07
2018-01-19T06:08:46.213Z,25.37
2018-01-19T06:11:14.582Z,25.03
2018-01-19T06:13:42.943Z,27.70
2018-01-19T06:16:11.297Z,24.97
2018-01-19T06:18:40.520Z,23.97
2018-01-19T06:21:08.893Z,23.87
2018-01-19T06:23:37.576Z,23.30
2018-01-19T06:26:05.930Z,26.00
2018-01-19T06:28:35.034Z,25.20
2018-01-19T06:31:04.374Z,25.90
2018-01-19T06:33:32.734Z,27.50
2018-01-19T06:36:01.198Z,28.73
2018-01-19T06:38:30.171Z,29.07
2018-01-19T06:40:58.542Z,24.50
2018-01-19T06:43:26.886Z,23.33
2018-01-19T06:45:55.272Z,23.83
2018-01-19T06:48:23.640Z,20.67
2018-01-19T06:50:52.251Z,20.50
2018-01-19T06:53:20.637Z,20.03
2018-01-19T06:55:49.952Z,20.17
2018-01-19T06:58:19.102Z,19.77
2018-01-19T07:00:47.525Z,21.17
2018-01-19T07:03:16.672Z,22.07
2018-01-19T07:05:45.186Z,23.57
2018-01-19T07:08:13.561Z,25.13
2018-01-19T07:10:42.073Z,23.70
2018-01-19T07:13:11.202Z,23.43
2018-01-19T07:15:39.662Z,23.03
2018-01-19T07:18:08.067Z,22.80
2018-01-19T07:20:36.405Z,22.77
2018-01-19T07:23:04.650Z,22.37
2018-01-19T07:25:33.624Z,22.70
2018-01-19T07:28:01.982Z,22.23
2018-01-19T07:30:30.355Z,22.70
2018-01-19T07:32:58.723Z,21.73
2018-01-19T07:35:27.242Z,19.90
2018-01-19T07:37:55.697Z,20.13
2018-01-19T07:40:23.991Z,19.90
2018-01-19T07:42:52.623Z,17.70
2018-01-19T07:45:21.644Z,19.33
2018-01-19T07:47:50.001Z,16.70
2018-01-19T07:50:18.396Z,17.57
2018-01-19T07:52:46.751Z,17.70
2018-01-19T07:55:16.122Z,17.73
2018-01-19T07:57:46.000Z,17.47
2018-01-19T08:00:14.350Z,17.50
2018-01-19T08:02:42.824Z,16.77
2018-01-19T08:05:11.187Z,17.27
2018-01-19T08:07:40.332Z,17.40
2018-01-19T08:10:08.876Z,17.20
2018-01-19T08:12:37.251Z,17.90
2018-01-19T08:15:06.467Z,17.33
2018-01-19T08:17:34.865Z,16.60
2018-01-19T08:20:02.899Z,17.73
2018-01-19T08:22:31.269Z,15.90
2018-01-19T08:25:00.955Z,16.13
2018-01-19T08:27:29.334Z,17.10
2018-01-19T08:29:57.905Z,16.73
2018-01-19T08:32:26.462Z,15.67
2018-01-19T08:34:54.861Z,17.37
2018-01-19T08:37:23.405Z,16.97
2018-01-19T08:39:51.864Z,17.70
2018-01-19T08:42:20.581Z,18.93
2018-01-19T08:44:49.376Z,15.77
2018-01-19T08:47:17.725Z,17.17
2018-01-19T08:49:46.912Z,17.23
2018-01-19T08:52:16.017Z,16.13
2018-01-19T08:54:44.374Z,17.23
2018-01-19T08:57:13.510Z,16.47
2018-01-19T08:59:41.903Z,15.50
2018-01-19T09:02:10.574Z,15.60
2018-01-19T09:04:38.925Z,15.47
2018-01-19T09:07:07.323Z,15.30
2018-01-19T09:09:35.679Z,15.90
2018-01-19T09:12:04.038Z,14.07
2018-01-19T09:14:32.430Z,13.83
2018-01-19T09:17:01.562Z,14.00
2018-01-19T09:19:29.924Z,13.40
2018-01-19T09:21:57.946Z,14.97
2018-01-19T09:24:26.285Z,14.13
2018-01-19T09:26:54.470Z,14.70
2018-01-19T09:29:23.117Z,13.30
2018-01-19T09:31:52.241Z,15.20
2018-01-19T09:34:20.754Z,14.90
2018-01-19T09:36:50.061Z,15.70
2018-01-19T09:39:18.436Z,15.90
2018-01-19T09:41:47.799Z,13.80
2018-01-19T09:44:16.136Z,15.40
2018-01-19T09:46:45.074Z,13.83
2018-01-19T09:49:14.617Z,12.13
2018-01-19T09:51:42.987Z,13.00
2018-01-19T09:54:11.355Z,13.27
2018-01-19T09:56:39.708Z,13.47
2018-01-19T09:59:08.215Z,11.93
2018-01-19T10:01:36.698Z,11.93
2018-01-19T10:04:05.805Z,11.03
2018-01-19T10:06:34.155Z,10.30
2018-01-19T10:09:02.514Z,9.33
2018-01-19T10:11:30.979Z,8.00
2018-01-19T10:13:59.387Z,8.33
2018-01-19T10:16:27.923Z,8.70
2018-01-19T10:18:57.084Z,8.30
2018-01-19T10:21:25.603Z,8.90
2018-01-19T10:23:54.842Z,8.87
2018-01-19T10:26:23.177Z,8.00
2018-01-19T10:28:51.586Z,7.97
2018-01-19T10:31:19.925Z,8.33
2018-01-19T10:33:49.047Z,7.70
2018-01-19T10:36:17.413Z,7.90
2018-01-19T10:38:45.904Z,6.70
2018-01-19T10:41:14.730Z,7.70
2018-01-19T10:43:43.201Z,7.83
2018-01-19T10:46:12.476Z,8.83
2018-01-19T10:48:41.502Z,8.00
2018-01-19T10:51:10.188Z,7.60
2018-01-19T10:53:38.842Z,6.60
2018-01-19T10:56:07.227Z,7.17
2018-01-19T10:58:35.870Z,7.23
2018-01-19T11:01:05.023Z,6.40
2018-01-19T11:03:33.395Z,7.10
2018-01-19T11:06:01.737Z,6.30
2018-01-19T11:08:31.225Z,6.73
2018-01-19T11:11:00.388Z,6.60
2018-01-19T11:13:28.789Z,6.77
2018-01-19T11:15:57.901Z,6.03
2018-01-19T11:18:27.038Z,5.93
2018-01-19T11:20:55.382Z,5.97
2018-01-19T11:23:24.534Z,6.10
2018-01-19T11:25:52.877Z,6.60
2018-01-19T11:28:21.320Z,5.87
2018-01-19T11:30:49.828Z,6.00
2018-01-19T11:33:18.402Z,6.20
2018-01-19T11:35:46.600Z,5.77
2018-01-19T11:38:14.952Z,5.80
2018-01-19T11:40:43.802Z,6.23
2018-01-19T11:43:12.132Z,5.13
2018-01-19T11:45:40.502Z,6.20
2018-01-19T11:48:08.846Z,6.43
2018-01-19T11:50:38.031Z,5.63
2018-01-19T11:53:06.423Z,5.50
2018-01-19T11:55:34.880Z,5.37
2018-01-19T11:58:03.397Z,5.70
2018-01-19T12:00:31.757Z,5.37
2018-01-19T12:03:00.206Z,5.80
2018-01-19T12:05:28.599Z,5.70
2018-01-19T12:07:57.034Z,5.70
2018-01-19T12:10:25.406Z,4.90
2018-01-19T12:12:53.927Z,5.37
2018-01-19T12:15:22.286Z,5.80
2018-01-19T12:17:50.788Z,4.90
2018-01-19T12:20:19.235Z,5.33
2018-01-19T12:22:47.606Z,5.30
2018-01-19T12:25:16.209Z,5.70
2018-01-19T12:27:44.580Z,5.80
2018-01-19T12:30:12.923Z,5.90
2018-01-19T12:32:42.536Z,6.50
2018-01-19T12:35:11.038Z,6.40
2018-01-19T12:37:39.500Z,6.27
2018-01-19T12:40:07.856Z,6.03
2018-01-19T12:42:36.987Z,6.30
2018-01-19T12:45:05.332Z,6.30
2018-01-19T12:47:34.515Z,5.87
2018-01-19T12:50:04.298Z,6.43
2018-01-19T12:52:32.657Z,6.10
2018-01-19T12:55:01.115Z,5.80
2018-01-19T12:57:29.485Z,6.03
2018-01-19T12:59:58.810Z,5.60
2018-01-19T13:02:27.148Z,5.10
2018-01-19T13:04:56.350Z,4.70
2018-01-19T13:07:24.837Z,5.30
2018-01-19T13:09:53.983Z,5.20
2018-01-19T13:12:22.321Z,4.73
2018-01-19T13:14:50.681Z,4.90
2018-01-19T13:17:19.792Z,5.50
2018-01-19T13:19:48.331Z,4.90
2018-01-19T13:22:16.703Z,5.20
2018-01-19T13:24:44.881Z,4.90
2018-01-19T13:27:13.228Z,5.37
2018-01-19T13:29:41.689Z,5.33
2018-01-19T13:32:10.798Z,4.87
2018-01-19T13:34:39.127Z,5.73
2018-01-19T13:37:08.279Z,4.77
2018-01-19T13:39:36.622Z,5.30
2018-01-19T13:42:04.977Z,4.63
2018-01-19T13:44:33.326Z,4.97
2018-01-19T13:47:01.696Z,5.37
2018-01-19T13:49:30.086Z,4.27
2018-01-19T13:51:58.446Z,5.00
2018-01-19T13:54:26.808Z,4.70
2018-01-19T13:56:55.160Z,4.33
2018-01-19T13:59:24.423Z,4.90
2018-01-19T14:01:52.790Z,4.40
2018-01-19T14:04:21.159Z,5.00
2018-01-19T14:06:49.530Z,5.97
2018-01-19T14:09:18.144Z,4.90
2018-01-19T14:11:46.611Z,5.00
2018-01-19T14:14:14.997Z,5.13
2018-01-19T14:16:43.371Z,5.47
2018-01-19T14:19:11.761Z,5.00
2018-01-19T14:21:40.281Z,5.10
2018-01-19T14:24:08.829Z,5.37
2018-01-19T14:26:37.261Z,4.43
2018-01-19T14:29:05.341Z,5.40
2018-01-19T14:31:33.715Z,4.30
2018-01-19T14:34:02.096Z,5.80
2018-01-19T14:36:30.684Z,4.30
2018-01-19T14:38:59.034Z,4.07
2018-01-19T14:41:27.444Z,4.23
2018-01-19T14:43:55.816Z,4.83
2018-01-19T14:46:24.264Z,4.40
2018-01-19T14:48:53.386Z,4.60
2018-01-19T14:51:21.899Z,4.47
2018-01-19T14:53:50.889Z,4.57
2018-01-19T14:56:19.254Z,4.70
2018-01-19T14:58:47.598Z,4.77
2018-01-19T15:01:16.147Z,4.50
2018-01-19T15:03:44.486Z,4.17
2018-01-19T15:06:12.867Z,4.40
2018-01-19T15:08:41.332Z,4.30
2018-01-19T15:11:09.867Z,4.23
2018-01-19T15:13:39.006Z,5.40
2018-01-19T15:16:07.042Z,4.87
2018-01-19T15:18:35.421Z,4.30
2018-01-19T15:21:04.551Z,4.00
2018-01-19T15:23:32.929Z,4.10
2018-01-19T15:26:01.283Z,4.30
2018-01-19T15:28:29.683Z,3.90
2018-01-19T15:30:58.050Z,3.80
2018-01-19T15:33:26.547Z,3.77
2018-01-19T15:35:54.919Z,3.90
2018-01-19T15:38:23.331Z,4.07
2018-01-19T15:40:52.902Z,4.07
2018-01-19T15:43:21.301Z,4.30
2018-01-19T15:45:49.626Z,3.67
2018-01-19T15:48:18.740Z,3.63
2018-01-19T15:50:47.091Z,4.20
2018-01-19T15:53:16.206Z,3.87
2018-01-19T15:55:44.565Z,4.10
2018-01-19T15:58:13.833Z,3.80
2018-01-19T16:00:42.186Z,3.73
2018-01-19T16:03:10.556Z,4.10
2018-01-19T16:05:39.659Z,4.40
2018-01-19T16:08:08.029Z,4.67
2018-01-19T16:10:36.387Z,5.10
2018-01-19T16:13:08.119Z,4.97
2018-01-19T16:15:36.479Z,4.40
2018-01-19T16:18:04.858Z,4.23
2018-01-19T16:20:33.227Z,4.90
2018-01-19T16:23:01.576Z,6.37
2018-01-19T16:25:30.167Z,5.17
2018-01-19T16:27:58.608Z,5.33
2018-01-19T16:30:27.840Z,5.30
2018-01-19T16:32:56.180Z,4.97
2018-01-19T16:35:25.314Z,5.37
2018-01-19T16:37:54.988Z,4.77
2018-01-19T16:40:24.596Z,4.90
2018-01-19T16:42:53.719Z,5.17
2018-01-19T16:45:22.257Z,4.97
2018-01-19T16:47:50.271Z,4.80
2018-01-19T16:50:18.641Z,4.90
2018-01-19T16:52:46.981Z,4.90
2018-01-19T16:55:16.316Z,5.73
2018-01-19T16:57:44.897Z,5.57
2018-01-19T17:00:13.232Z,5.20
2018-01-19T17:02:41.590Z,5.90
2018-01-19T17:05:10.047Z,5.27
2018-01-19T17:07:38.461Z,5.50
2018-01-19T17:10:06.826Z,5.47
2018-01-19T17:12:35.204Z,5.13
2018-01-19T17:15:03.772Z,6.63
2018-01-19T17:17:32.174Z,5.80
2018-01-19T17:20:01.028Z,5.60
2018-01-19T17:22:29.459Z,6.10
2018-01-19T17:24:57.923Z,6.77
2018-01-19T17:27:26.275Z,5.00
2018-01-19T17:29:54.653Z,6.83
2018-01-19T17:32:23.003Z,6.13
2018-01-19T17:34:51.364Z,5.33
2018-01-19T17:37:20.510Z,6.10
2018-01-19T17:39:49.053Z,6.07
2018-01-19T17:42:18.228Z,6.80
2018-01-19T17:44:47.541Z,6.07
2018-01-19T17:47:15.918Z,6.57
2018-01-19T17:49:45.039Z,6.10
2018-01-19T17:52:13.403Z,6.57
2018-01-19T17:54:42.424Z,6.23
2018-01-19T17:57:10.818Z,6.40
2018-01-19T17:59:39.422Z,6.60
2018-01-19T18:02:07.790Z,6.77
2018-01-19T18:04:37.657Z,6.57
2018-01-19T18:07:06.036Z,6.60
2018-01-19T18:09:34.397Z,6.17
2018-01-19T18:12:02.738Z,6.30
2018-01-19T18:14:32.918Z,7.00
2018-01-19T18:17:01.088Z,7.00
2018-01-19T18:19:29.447Z,6.80
2018-01-19T18:21:57.465Z,6.30
2018-01-19T18:24:25.850Z,6.03
2018-01-19T18:26:54.819Z,6.03
2018-01-19T18:29:23.183Z,6.80
2018-01-19T18:31:51.627Z,6.67
2018-01-19T18:34:20.762Z,6.67
2018-01-19T18:36:49.142Z,7.40
2018-01-19T18:39:17.514Z,7.23
2018-01-19T18:41:45.866Z,7.47
2018-01-19T18:44:15.042Z,6.53
2018-01-19T18:46:43.395Z,7.13
2018-01-19T18:49:11.775Z,6.80
2018-01-19T18:51:40.236Z,7.20
2018-01-19T18:54:08.653Z,7.20
2018-01-19T18:56:37.919Z,6.53
2018-01-19T18:59:06.426Z,6.80
2018-01-19T19:01:34.767Z,6.60
2018-01-19T19:04:04.790Z,6.73
2018-01-19T19:06:33.235Z,6.20
2018-01-19T19:09:01.604Z,7.00
2018-01-19T19:11:29.981Z,6.80
2018-01-19T19:13:59.081Z,6.77
2018-01-19T19:16:28.480Z,6.97
2018-01-19T19:18:57.745Z,6.77
2018-01-19T19:21:26.114Z,6.33
2018-01-19T19:23:54.357Z,7.13
2018-01-19T19:26:22.983Z,6.17
2018-01-19T19:28:51.398Z,7.03
2018-01-19T19:31:20.522Z,6.20
2018-01-19T19:33:49.076Z,6.50
2018-01-19T19:36:18.253Z,6.50
2018-01-19T19:38:47.409Z,7.40
2018-01-19T19:41:15.769Z,7.00
2018-01-19T19:43:44.216Z,6.97
2018-01-19T19:46:13.334Z,7.40
2018-01-19T19:48:41.686Z,7.30
2018-01-19T19:51:10.903Z,6.93
2018-01-19T19:53:39.290Z,6.60
2018-01-19T19:56:07.735Z,7.33
2018-01-19T19:58:36.103Z,7.10
2018-01-19T20:01:05.310Z,6.77
2018-01-19T20:03:34.494Z,6.70
2018-01-19T20:06:02.861Z,6.70
2018-01-19T20:08:31.216Z,7.07
2018-01-19T20:10:59.594Z,6.47
2018-01-19T20:13:28.666Z,6.60
2018-01-19T20:15:57.051Z,6.50
2018-01-19T20:18:25.418Z,6.53
2018-01-19T20:20:54.488Z,6.73
2018-01-19T20:23:23.619Z,6.17
2018-01-19T20:25:51.991Z,6.60
2018-01-19T20:28:20.388Z,6.47
2018-01-19T20:30:49.310Z,6.30
2018-01-19T20:33:17.670Z,6.70
2018-01-19T20:35:46.063Z,6.83
2018-01-19T20:38:14.297Z,6.40
2018-01-19T20:40:42.674Z,6.23
2018-01-19T20:43:11.048Z,6.73
2018-01-19T20:45:39.463Z,6.50
2018-01-19T20:48:07.811Z,7.20
2018-01-19T20:50:36.214Z,6.30
2018-01-19T20:53:04.739Z,7.23
2018-01-19T20:55:34.118Z,7.13
2018-01-19T20:58:02.704Z,7.30
2018-01-19T21:00:31.062Z,7.37
2018-01-19T21:02:59.498Z,6.80
2018-01-19T21:05:28.030Z,6.57
2018-01-19T21:07:56.428Z,6.37
2018-01-19T21:10:24.798Z,6.90
2018-01-19T21:12:53.225Z,6.73
2018-01-19T21:15:22.297Z,6.50
2018-01-19T21:17:51.254Z,7.53
2018-01-19T21:20:19.752Z,7.70
2018-01-19T21:22:49.026Z,6.83
2018-01-19T21:25:17.429Z,6.43
2018-01-19T21:27:46.596Z,6.73
2018-01-19T21:30:15.020Z,6.63
2018-01-19T21:32:44.383Z,7.53
2018-01-19T21:35:12.763Z,7.30
2018-01-19T21:37:41.120Z,7.20
2018-01-19T21:40:09.493Z,6.73
2018-01-19T21:42:37.892Z,7.20
2018-01-19T21:45:06.277Z,7.40
2018-01-19T21:47:34.843Z,8.17
2018-01-19T21:50:03.260Z,6.57
2018-01-19T21:52:32.408Z,6.60
2018-01-19T21:55:00.931Z,6.57
2018-01-19T21:57:30.084Z,7.17
2018-01-19T21:59:58.658Z,6.70
2018-01-19T22:02:27.212Z,7.27
2018-01-19T22:04:55.769Z,6.60
2018-01-19T22:07:24.152Z,7.93
2018-01-19T22:09:53.820Z,7.80
2018-01-19T22:12:22.192Z,7.77
2018-01-19T22:14:50.595Z,8.00
2018-01-19T22:17:18.960Z,7.73
2018-01-19T22:19:47.353Z,8.70
2018-01-19T22:22:15.710Z,8.00
2018-01-19T22:24:44.102Z,7.20
2018-01-19T22:27:12.687Z,8.27
2018-01-19T22:29:41.509Z,7.40
2018-01-19T22:32:10.443Z,7.37
2018-01-19T22:34:38.837Z,7.93
2018-01-19T22:37:07.036Z,6.93
2018-01-19T22:39:37.218Z,6.83
2018-01-19T22:42:05.403Z,6.77
2018-01-19T22:44:33.830Z,6.80
2018-01-19T22:47:02.963Z,5.73
2018-01-19T22:49:31.331Z,7.07
2018-01-19T22:52:01.183Z,6.60
2018-01-19T22:54:29.541Z,6.80
2018-01-19T22:56:57.952Z,6.20
2018-01-19T22:59:26.333Z,5.73
2018-01-19T23:01:55.062Z,5.80
2018-01-19T23:04:23.405Z,6.10
2018-01-19T23:06:52.655Z,5.50
2018-01-19T23:09:21.020Z,5.30
2018-01-19T23:11:49.395Z,6.20
2018-01-19T23:14:17.836Z,6.03
2018-01-19T23:16:47.024Z,6.30
2018-01-19T23:19:15.559Z,6.37
2018-01-19T23:21:48.645Z,6.17
2018-01-19T23:24:17.324Z,6.00
2018-01-19T23:26:45.813Z,6.00
2018-01-19T23:29:14.376Z,6.47
2018-01-19T23:31:43.519Z,6.40
2018-01-19T23:34:11.886Z,8.30
2018-01-19T23:36:40.303Z,6.50
2018-01-19T23:39:08.679Z,6.03
2018-01-19T23:41:37.097Z,5.90
2018-01-19T23:44:05.476Z,5.97
2018-01-19T23:46:33.819Z,6.00
2018-01-19T23:49:03.327Z,6.83
2018-01-19T23:51:32.459Z,5.37
2018-01-19T23:54:00.844Z,6.07
2018-01-19T23:56:29.345Z,5.90
2018-01-19T23:58:57.867Z,5.20
